Time;durP1;ratioP1;P1;durP2;ratioP2;P2;SDS_P1;SDS_P2;PMS_P1;PMS_P2;Temp;Humidity;BMP_temperature;BMP_pressure;BME280_temperature;BME280_humidity;BME280_pressure;Samples;Min_cycle;Max_cycle;Signal;HPM_P1;HPM_P2
2022/11/28 00:00:25;;;;;;;19.38;11.55;;;6.80;99.90;;;;;;4975909;28;20106;-77
2022/11/28 00:02:50;;;;;;;16.67;10.35;;;6.80;99.90;;;;;;4975766;28;20110;-76
2022/11/28 00:05:16;;;;;;;21.42;11.02;;;6.70;99.90;;;;;;4982878;28;20532;-76
2022/11/28 00:07:42;;;;;;;19.63;11.27;;;6.80;99.90;;;;;;4981810;28;20045;-76
2022/11/28 00:10:08;;;;;;;16.38;10.75;;;6.80;99.90;;;;;;4975657;28;20470;-76
2022/11/28 00:12:34;;;;;;;16.63;10.38;;;6.80;99.90;;;;;;4975760;28;20027;-77
2022/11/28 00:14:59;;;;;;;32.78;11.68;;;6.80;99.90;;;;;;4975750;28;20023;-76
2022/11/28 00:17:25;;;;;;;21.00;11.75;;;6.80;99.90;;;;;;4975683;28;20019;-76
2022/11/28 00:19:51;;;;;;;20.70;10.90;;;6.80;99.90;;;;;;4975469;28;20031;-76
2022/11/28 00:22:16;;;;;;;16.70;9.95;;;6.70;99.90;;;;;;4958184;28;20023;-76
2022/11/28 00:24:42;;;;;;;17.95;11.43;;;6.80;99.90;;;;;;4975421;28;20097;-76
2022/11/28 00:27:07;;;;;;;18.02;11.43;;;6.70;99.90;;;;;;4975517;28;20034;-76
2022/11/28 00:29:34;;;;;;;20.10;11.90;;;6.90;99.90;;;;;;4975253;28;20465;-76
2022/11/28 00:31:59;;;;;;;18.90;11.32;;;6.80;99.90;;;;;;4975453;28;20034;-76
2022/11/28 00:34:25;;;;;;;20.48;10.85;;;6.80;99.90;;;;;;4975318;28;20014;-77
2022/11/28 00:36:50;;;;;;;18.98;9.50;;;6.70;99.90;;;;;;4975325;28;20033;-76
2022/11/28 00:39:16;;;;;;;17.90;10.70;;;6.80;99.90;;;;;;4975088;28;20378;-76
2022/11/28 00:41:43;;;;;;;19.80;11.20;;;6.70;99.90;;;;;;4975119;28;20019;-76
2022/11/28 00:44:09;;;;;;;17.58;11.10;;;6.80;99.90;;;;;;4975095;28;20027;-76
2022/11/28 00:46:35;;;;;;;22.50;10.75;;;6.90;99.90;;;;;;4975109;28;20038;-76
2022/11/28 00:49:01;;;;;;;21.98;11.63;;;6.80;99.90;;;;;;4973927;28;20054;-77
2022/11/28 00:51:30;;;;;;;17.23;10.07;;;6.70;99.90;;;;;;4975086;28;20557;-76
2022/11/28 00:53:58;;;;;;;20.95;11.88;;;6.80;99.90;;;;;;4974892;28;20023;-76
2022/11/28 00:56:27;;;;;;;20.35;11.55;;;6.70;99.90;;;;;;4975002;28;20102;-76
2022/11/28 00:58:53;;;;;;;20.77;11.43;;;6.80;99.90;;;;;;4974791;28;20031;-76
2022/11/28 01:01:26;;;;;;;21.88;12.50;;;6.80;99.90;;;;;;4976306;28;20257;-77
2022/11/28 01:03:53;;;;;;;22.73;12.18;;;6.80;99.90;;;;;;4994116;28;20041;-77
2022/11/28 01:06:24;;;;;;;23.00;12.05;;;6.80;99.90;;;;;;4994105;28;20445;-76
2022/11/28 01:08:50;;;;;;;22.15;12.25;;;6.70;99.90;;;;;;4994088;28;20030;-76
2022/11/28 01:11:16;;;;;;;18.88;11.75;;;6.80;99.90;;;;;;4994113;28;20023;-76
2022/11/28 01:13:42;;;;;;;20.50;11.93;;;6.70;99.90;;;;;;4993983;28;20018;-76
2022/11/28 01:16:09;;;;;;;17.98;10.98;;;6.80;99.90;;;;;;4993661;28;20052;-76
2022/11/28 01:18:36;;;;;;;22.25;12.63;;;6.80;99.90;;;;;;4976324;28;20474;-76
2022/11/28 01:21:02;;;;;;;18.40;11.30;;;6.80;99.90;;;;;;4993876;28;20022;-77
2022/11/28 01:23:27;;;;;;;21.40;11.77;;;6.70;99.90;;;;;;4983764;28;20023;-76
2022/11/28 01:25:53;;;;;;;18.02;11.70;;;6.70;99.90;;;;;;4974215;28;20064;-76
2022/11/28 01:28:18;;;;;;;18.83;11.98;;;6.90;99.90;;;;;;4974431;28;20066;-76
2022/11/28 01:30:44;;;;;;;19.70;11.63;;;6.80;99.90;;;;;;4974265;28;20019;-76
2022/11/28 01:33:10;;;;;;;24.23;12.88;;;6.70;99.90;;;;;;4974272;28;20027;-77
2022/11/28 01:35:35;;;;;;;23.13;13.02;;;6.80;99.90;;;;;;4974203;28;20104;-76
2022/11/28 01:38:01;;;;;;;22.70;12.85;;;6.90;99.90;;;;;;4974189;28;20069;-76
2022/11/28 01:40:26;;;;;;;23.45;12.68;;;6.70;99.90;;;;;;4974134;28;20026;-76
2022/11/28 01:42:52;;;;;;;20.40;12.63;;;6.70;99.90;;;;;;4974017;28;20026;-76
2022/11/28 01:45:23;;;;;;;20.83;12.45;;;6.70;99.90;;;;;;4974034;28;20027;-76
2022/11/28 01:47:50;;;;;;;21.25;12.63;;;6.80;99.90;;;;;;4973935;28;20038;-76
2022/11/28 01:50:17;;;;;;;21.75;13.65;;;6.80;99.90;;;;;;4973802;28;20051;-76
2022/11/28 01:52:46;;;;;;;24.13;13.38;;;6.80;99.90;;;;;;4973886;28;20114;-76
2022/11/28 01:55:16;;;;;;;24.38;13.18;;;6.90;99.90;;;;;;4973939;28;20041;-76
2022/11/28 01:57:42;;;;;;;20.95;12.88;;;6.90;99.90;;;;;;4974217;28;20022;-76
2022/11/28 02:00:15;;;;;;;21.83;12.82;;;6.90;99.90;;;;;;4973425;28;20050;-77
2022/11/28 02:03:03;;;;;;;19.88;12.63;;;6.80;99.90;;;;;;4956506;28;20054;-76
2022/11/28 02:05:29;;;;;;;20.98;11.93;;;6.80;99.90;;;;;;4973629;28;20031;-76
2022/11/28 02:07:54;;;;;;;23.08;12.70;;;6.90;99.90;;;;;;4973822;28;20034;-77
2022/11/28 02:10:27;;;;;;;21.70;12.98;;;6.90;99.90;;;;;;4973787;28;20019;-77
2022/11/28 02:13:22;;;;;;;23.30;13.40;;;6.80;99.90;;;;;;4973669;28;20172;-76
2022/11/28 02:16:03;;;;;;;19.45;11.77;;;6.90;99.90;;;;;;4973571;28;20492;-76
2022/11/28 02:18:40;;;;;;;19.20;11.25;;;6.80;99.90;;;;;;4973615;28;20039;-76
2022/11/28 02:21:23;;;;;;;19.50;11.77;;;6.90;99.90;;;;;;4973415;28;20055;-76
2022/11/28 02:23:52;;;;;;;20.05;11.45;;;6.90;99.90;;;;;;4973836;28;20458;-77
2022/11/28 02:26:33;;;;;;;21.65;11.75;;;6.90;99.90;;;;;;4973358;28;20026;-76
2022/11/28 02:29:32;;;;;;;20.65;12.20;;;6.90;99.90;;;;;;4973430;28;20031;-76
2022/11/28 02:32:23;;;;;;;20.52;11.50;;;6.90;99.90;;;;;;4973408;28;20030;-77
2022/11/28 02:34:58;;;;;;;18.67;10.77;;;7.00;99.90;;;;;;4973530;28;20041;-76
2022/11/28 02:37:29;;;;;;;17.48;10.73;;;7.00;99.90;;;;;;4973425;28;20034;-76
2022/11/28 02:39:54;;;;;;;;;;;7.00;99.90;;;;;;4973797;28;20031;-76
2022/11/28 02:42:29;;;;;;;17.65;10.40;;;7.00;99.90;;;;;;4973212;28;19910;-77
2022/11/28 02:44:59;;;;;;;18.25;10.50;;;6.90;99.90;;;;;;4973297;28;20019;-76
2022/11/28 02:47:31;;;;;;;15.75;10.20;;;7.00;99.90;;;;;;4973171;28;20023;-77
2022/11/28 02:50:12;;;;;;;17.25;10.15;;;6.90;99.90;;;;;;4973042;28;20154;-76
2022/11/28 02:53:03;;;;;;;;;;;7.10;99.90;;;;;;4973647;28;20034;-76
2022/11/28 02:55:30;;;;;;;16.98;9.75;;;7.00;99.90;;;;;;4987245;28;19906;-76
2022/11/28 02:57:55;;;;;;;14.93;9.55;;;7.10;99.90;;;;;;4992515;28;20023;-77
2022/11/28 03:00:33;;;;;;;15.50;9.70;;;7.10;99.90;;;;;;4992595;28;20026;-77
2022/11/28 03:03:05;;;;;;;15.07;9.65;;;7.10;99.90;;;;;;4992507;28;20065;-77
2022/11/28 03:05:35;;;;;;;16.13;8.57;;;7.10;99.90;;;;;;4992582;28;20018;-76
2022/11/28 03:08:30;;;;;;;14.20;9.20;;;7.10;99.90;;;;;;4992451;28;20034;-77
2022/11/28 03:11:28;;;;;;;17.00;9.38;;;7.10;99.90;;;;;;4993121;28;20022;-77
2022/11/28 03:14:22;;;;;;;15.90;8.95;;;7.10;99.90;;;;;;4978722;28;20038;-77
2022/11/28 03:17:03;;;;;;;15.57;9.68;;;7.10;99.90;;;;;;4996117;28;20030;-76
2022/11/28 03:19:46;;;;;;;17.80;10.10;;;7.20;99.90;;;;;;4996131;28;20026;-77
2022/11/28 03:22:31;;;;;;;14.90;9.05;;;7.20;99.90;;;;;;4996077;28;20018;-76
2022/11/28 03:25:07;;;;;;;14.90;9.40;;;7.20;99.90;;;;;;4996058;28;20038;-76
2022/11/28 03:27:49;;;;;;;14.60;8.95;;;7.10;99.90;;;;;;4995984;28;20101;-76
2022/11/28 03:30:31;;;;;;;17.65;9.55;;;7.20;99.90;;;;;;4976614;28;20512;-76
2022/11/28 03:32:59;;;;;;;15.95;9.45;;;7.30;99.90;;;;;;4976491;28;20038;-77
2022/11/28 03:35:30;;;;;;;13.93;8.98;;;7.10;99.90;;;;;;4976439;28;20081;-76
2022/11/28 03:38:10;;;;;;;16.17;8.93;;;7.30;99.90;;;;;;4976304;28;20078;-77
2022/11/28 03:40:39;;;;;;;14.67;8.67;;;7.20;99.90;;;;;;4976509;28;20026;-76
2022/11/28 03:43:10;;;;;;;16.50;9.43;;;7.30;99.90;;;;;;4976202;28;20469;-77
2022/11/28 03:45:39;;;;;;;15.02;9.35;;;7.40;99.90;;;;;;4976347;28;20031;-77
2022/11/28 03:48:18;;;;;;;16.08;9.18;;;7.30;99.90;;;;;;4975991;28;20042;-77
2022/11/28 03:50:54;;;;;;;14.32;9.70;;;7.50;99.90;;;;;;4976079;28;20030;-76
2022/11/28 03:53:29;;;;;;;14.18;9.52;;;7.30;99.90;;;;;;4976168;28;20025;-76
2022/11/28 03:56:03;;;;;;;16.63;10.25;;;7.30;99.90;;;;;;4976196;28;20362;-76
2022/11/28 03:58:35;;;;;;;13.68;9.27;;;7.40;99.90;;;;;;4988269;28;20099;-76
2022/11/28 04:01:01;;;;;;;15.75;9.27;;;7.50;99.90;;;;;;4995459;28;20510;-77
2022/11/28 04:03:50;;;;;;;13.68;9.30;;;7.40;99.90;;;;;;4995379;28;20027;-76
2022/11/28 04:06:24;;;;;;;14.43;10.38;;;7.40;99.90;;;;;;4995506;28;20035;-77
2022/11/28 04:09:13;;;;;;;13.07;8.95;;;;;;;;;;4995327;28;20057;-76
2022/11/28 04:11:46;;;;;;;19.08;9.50;;;7.70;99.90;;;;;;4995312;28;20026;-76
2022/11/28 04:14:17;;;;;;;17.08;8.90;;;;;;;;;;4995076;28;20109;-76
2022/11/28 04:16:48;;;;;;;15.40;9.68;;;;;;;;;;4989722;28;20026;-77
2022/11/28 04:19:17;;;;;;;21.20;10.05;;;;;;;;;;4992996;28;20035;-77
2022/11/28 04:21:45;;;;;;;18.17;9.73;;;;;;;;;;4994924;28;20050;-76
2022/11/28 04:24:31;;;;;;;51.75;13.15;;;;;;;;;;4994792;28;20028;-77
2022/11/28 04:27:00;;;;;;;27.20;10.55;;;;;;;;;;4994800;28;20034;-76
2022/11/28 04:29:27;;;;;;;25.48;10.07;;;;;;;;;;4994892;28;20540;-77
2022/11/28 04:31:56;;;;;;;15.98;9.30;;;;;;;;;;4994870;28;20445;-77
2022/11/28 04:34:23;;;;;;;15.30;9.73;;;;;;;;;;4995074;28;20033;-77
2022/11/28 04:36:50;;;;;;;17.15;8.70;;;;;;;;;;4990314;28;20156;-77
2022/11/28 04:39:18;;;;;;;18.08;9.35;;;;;;;;;;4975129;28;20552;-77
2022/11/28 04:41:50;;;;;;;17.05;8.82;;;;;;;;;;4975175;28;20022;-76
2022/11/28 04:44:21;;;;;;;18.65;9.73;;;;;;;;;;4975233;28;20030;-77
2022/11/28 04:46:51;;;;;;;20.10;9.68;;;;;;;;;;4975195;28;20082;-76
2022/11/28 04:49:17;;;;;;;;;;;;;;;;;;4975220;28;20490;-77
2022/11/28 04:51:53;;;;;;;22.67;9.27;;;;;;;;;;4975233;28;19906;-77
2022/11/28 04:54:27;;;;;;;19.63;8.88;;;;;;;;;;4973052;28;20081;-77
2022/11/28 04:56:57;;;;;;;19.88;8.52;;;;;;;;;;4977987;28;20080;-77
2022/11/28 04:59:25;;;;;;;14.40;8.25;;;;;;;;;;4994417;28;20612;-76
2022/11/28 05:01:51;;;;;;;69.45;11.35;;;;;;;;;;4994148;28;20413;-77
2022/11/28 05:04:18;;;;;;;16.80;8.07;;;;;;;;;;4994198;28;20085;-76
2022/11/28 05:06:44;;;;;;;31.75;8.85;;;;;;;;;;4994223;28;20528;-77
2022/11/28 05:09:11;;;;;;;17.90;8.02;;;;;;;;;;4994088;28;20042;-77
2022/11/28 05:11:37;;;;;;;16.95;7.75;;;;;;;;;;4994047;28;20054;-77
2022/11/28 05:14:03;;;;;;;14.55;7.70;;;;;;;;;;4994250;28;20018;-76
2022/11/28 05:16:29;;;;;;;14.55;8.13;;;;;;;;;;4993966;28;20100;-77
2022/11/28 05:18:55;;;;;;;16.13;6.95;;;;;;;;;;4993837;28;20042;-77
2022/11/28 05:21:21;;;;;;;14.98;7.35;;;;;;;;;;4993853;28;20105;-77
2022/11/28 05:23:47;;;;;;;17.25;7.53;;;;;;;;;;4993903;28;20127;-77
2022/11/28 05:26:15;;;;;;;15.98;7.50;;;;;;;;;;4994206;28;20077;-76
2022/11/28 05:28:44;;;;;;;16.30;8.30;;;;;;;;;;4993756;28;20110;-77
2022/11/28 05:31:11;;;;;;;19.85;8.40;;;;;;;;;;4993762;28;20453;-77
2022/11/28 05:33:37;;;;;;;15.80;8.13;;;;;;;;;;4992829;28;20061;-77
2022/11/28 05:36:04;;;;;;;16.05;7.80;;;;;;;;;;4993301;28;20026;-76
2022/11/28 05:38:31;;;;;;;15.98;7.18;;;;;;;;;;4993181;28;20030;-76
2022/11/28 05:40:58;;;;;;;17.05;8.10;;;;;;;;;;4993178;28;20073;-76
2022/11/28 05:43:24;;;;;;;13.40;7.20;;;;;;;;;;4993333;28;20022;-76
2022/11/28 05:45:50;;;;;;;13.85;7.03;;;;;;;;;;4993092;28;20449;-76
2022/11/28 05:48:16;;;;;;;12.88;6.75;;;;;;;;;;4992945;28;20030;-77
2022/11/28 05:50:42;;;;;;;16.98;7.45;;;;;;;;;;4993110;28;20034;-76
2022/11/28 05:53:09;;;;;;;12.43;7.15;;;;;;;;;;4975722;28;20022;-76
2022/11/28 05:55:36;;;;;;;15.20;7.03;;;;;;;;;;4993058;28;20026;-76
2022/11/28 05:58:02;;;;;;;12.93;6.75;;;;;;;;;;4993154;28;20022;-76
2022/11/28 06:00:28;;;;;;;11.77;6.60;;;;;;;;;;4993209;28;20022;-76
2022/11/28 06:02:54;;;;;;;10.00;5.60;;;;;;;;;;4993271;28;20034;-76
2022/11/28 06:05:20;;;;;;;12.77;6.05;;;;;;;;;;4993101;28;20081;-76
2022/11/28 06:07:46;;;;;;;10.57;6.10;;;;;;;;;;4993030;28;20022;-76
2022/11/28 06:10:12;;;;;;;11.25;6.10;;;;;;;;;;4992909;28;20438;-76
2022/11/28 06:12:38;;;;;;;10.63;5.78;;;;;;;;;;4992931;28;20109;-76
2022/11/28 06:15:04;;;;;;;9.65;5.22;;;;;;;;;;4992660;28;20030;-76
2022/11/28 06:17:31;;;;;;;12.02;5.63;;;;;;;;;;4993012;28;20034;-76
2022/11/28 06:19:57;;;;;;;7.60;4.75;;;;;;;;;;4992763;28;20462;-76
2022/11/28 06:22:23;;;;;;;10.73;6.47;;;;;;;;;;4992962;28;20019;-76
2022/11/28 06:24:49;;;;;;;10.48;5.90;;;;;;;;;;4993102;28;20039;-76
2022/11/28 06:27:15;;;;;;;11.52;6.25;;;;;;;;;;4992852;28;20034;-76
2022/11/28 06:29:41;;;;;;;8.88;5.35;;;;;;;;;;4992806;28;20022;-76
2022/11/28 06:32:07;;;;;;;18.90;5.93;;;;;;;;;;4992876;28;20022;-76
2022/11/28 06:34:33;;;;;;;8.13;5.10;;;;;;;;;;4992733;28;20527;-76
2022/11/28 06:36:59;;;;;;;9.38;6.15;;;;;;;;;;4975343;28;20065;-76
2022/11/28 06:39:25;;;;;;;10.15;6.28;;;;;;;;;;4992669;28;20441;-76
2022/11/28 06:41:51;;;;;;;11.40;6.57;;;;;;;;;;4992751;28;20110;-76
2022/11/28 06:44:17;;;;;;;12.40;7.03;;;;;;;;;;4992695;28;20039;-76
2022/11/28 06:46:43;;;;;;;12.90;7.47;;;;;;;;;;4994650;28;20466;-76
2022/11/28 06:49:12;;;;;;;12.27;7.22;;;;;;;;;;4996518;28;20054;-76
2022/11/28 06:51:39;;;;;;;15.30;7.97;;;;;;;;;;4996617;28;20424;-76
2022/11/28 06:54:05;;;;;;;14.10;7.63;;;;;;;;;;4996665;28;20295;-76
2022/11/28 06:56:31;;;;;;;13.75;7.50;;;;;;;;;;4996528;28;20101;-76
2022/11/28 06:58:58;;;;;;;15.10;8.35;;;;;;;;;;4996561;28;20469;-76
2022/11/28 07:01:25;;;;;;;15.60;8.43;;;;;;;;;;4996433;28;20035;-76
2022/11/28 07:03:53;;;;;;;16.02;8.40;;;;;;;;;;4996503;28;20068;-76
2022/11/28 07:06:20;;;;;;;17.73;8.85;;;;;;;;;;4996534;28;20033;-76
2022/11/28 07:08:46;;;;;;;15.55;8.38;;;;;;;;;;4996317;28;20441;-76
2022/11/28 07:11:22;;;;;;;18.25;9.20;;;;;;;;;;4996587;28;20484;-76
2022/11/28 07:13:50;;;;;;;17.80;8.65;;;;;;;;;;4996400;28;20658;-76
2022/11/28 07:16:17;;;;;;;18.30;9.60;;;;;;;;;;4996258;28;20033;-76
2022/11/28 07:18:44;;;;;;;22.10;10.48;;;;;;;;;;4996061;28;20076;-76
2022/11/28 07:21:10;;;;;;;17.00;9.32;;;;;;;;;;4995972;28;20462;-76
2022/11/28 07:23:36;;;;;;;17.92;8.90;;;;;;;;;;4996420;28;20026;-76
2022/11/28 07:26:03;;;;;;;16.13;9.35;;;;;;;;;;4978403;28;20023;-76
2022/11/28 07:28:30;;;;;;;19.95;9.73;;;;;;;;;;4996019;28;20664;-76
2022/11/28 07:31:04;;;;;;;22.52;10.50;;;;;;;;;;4995772;28;20442;-76
2022/11/28 07:33:30;;;;;;;17.35;9.70;;;;;;;;;;4995932;28;20034;-76
2022/11/28 07:36:00;;;;;;;22.40;10.63;;;;;;;;;;4995852;28;20023;-76
2022/11/28 07:38:26;;;;;;;24.77;11.25;;;;;;;;;;4995771;28;20117;-76
2022/11/28 07:40:52;;;;;;;23.90;10.70;;;;;;;;;;4995814;28;20162;-76
2022/11/28 07:43:18;;;;;;;29.38;13.32;;;;;;;;;;4983043;28;20026;-76
2022/11/28 07:45:44;;;;;;;27.60;12.88;;;;;;;;;;4976137;28;20052;-76
2022/11/28 07:48:10;;;;;;;29.27;13.55;;;;;;;;;;4976145;28;20535;-76
2022/11/28 07:50:38;;;;;;;31.40;13.40;;;;;;;;;;4978476;28;20038;-76
2022/11/28 07:53:04;;;;;;;31.98;15.40;;;;;;;;;;4986744;28;20026;-76
2022/11/28 07:55:30;;;;;;;39.75;14.35;;;;;;;;;;5000032;28;20449;-76
2022/11/28 07:57:56;;;;;;;36.95;14.63;;;;;;;;;;4990678;28;20034;-76
2022/11/28 08:00:22;;;;;;;34.88;15.02;;;;;;;;;;5006464;28;20039;-76
2022/11/28 08:02:48;;;;;;;32.95;13.70;;;;;;;;;;4980430;28;20027;-76
2022/11/28 08:05:14;;;;;;;34.53;15.13;;;;;;;;;;4997057;28;20030;-76
2022/11/28 08:07:40;;;;;;;36.63;15.40;;;;;;;;;;4996699;28;20065;-76
2022/11/28 08:10:07;;;;;;;40.67;16.23;;;;;;;;;;4995484;28;20397;-76
2022/11/28 08:12:32;;;;;;;37.10;14.85;;;;;;;;;;4994768;28;20022;-76
2022/11/28 08:14:58;;;;;;;36.17;14.77;;;;;;;;;;4994946;28;20026;-76
2022/11/28 08:17:24;;;;;;;41.17;15.43;;;;;;;;;;4997889;28;20069;-76
2022/11/28 08:19:50;;;;;;;41.30;16.55;;;;;;;;;;4991960;28;20034;-76
2022/11/28 08:22:16;;;;;;;43.38;16.67;;;;;;;;;;4977034;28;20027;-76
2022/11/28 08:24:42;;;;;;;38.70;14.95;;;;;;;;;;4976905;28;20027;-76
2022/11/28 08:27:08;;;;;;;43.03;14.75;;;;;;;;;;4976729;28;20033;-76
2022/11/28 08:29:34;;;;;;;39.78;15.55;;;;;;;;;;4976258;28;20355;-76
2022/11/28 08:32:00;;;;;;;44.15;15.20;;;;;;;;;;4975530;28;20023;-76
2022/11/28 08:34:26;;;;;;;60.83;16.73;;;;;;;;;;4975323;28;20030;-76
2022/11/28 08:36:52;;;;;;;41.85;16.42;;;;;;;;;;4975272;28;20031;-76
2022/11/28 08:39:18;;;;;;;45.13;17.30;;;;;;;;;;4975203;28;20452;-76
2022/11/28 08:41:44;;;;;;;46.03;16.30;;;;;;;;;;4986447;28;20104;-76
2022/11/28 08:44:10;;;;;;;43.67;16.98;;;;;;;;;;4994298;28;20038;-76
2022/11/28 08:46:36;;;;;;;40.25;15.73;;;;;;;;;;4994456;28;20326;-76
2022/11/28 08:49:02;;;;;;;41.78;16.77;;;;;;;;;;4976284;28;20126;-76
2022/11/28 08:51:29;;;;;;;42.53;17.73;;;;;;;;;;4992993;28;20034;-76
2022/11/28 08:53:55;;;;;;;40.38;16.80;;;;;;;;;;4982721;28;20023;-76
2022/11/28 08:56:21;;;;;;;39.85;17.45;;;;;;;;;;4979040;28;20110;-76
2022/11/28 08:58:47;;;;;;;39.78;17.17;;;;;;;;;;4981939;28;20034;-76
2022/11/28 09:01:17;;;;;;;36.10;16.13;;;;;;;;;;4993479;28;20023;-76
2022/11/28 09:03:43;;;;;;;41.33;16.13;;;;;;;;;;4987218;28;20032;-76
2022/11/28 09:06:09;;;;;;;36.33;16.90;;;;;;;;;;4990705;28;20110;-77
2022/11/28 09:08:35;;;;;;;39.00;16.00;;;;;;;;;;4989766;28;20070;-77
2022/11/28 09:11:01;;;;;;;38.33;15.10;;;;;;;;;;4988842;28;20346;-77
2022/11/28 09:13:27;;;;;;;34.20;14.77;;;;;;;;;;4993185;28;20060;-77
2022/11/28 09:15:54;;;;;;;34.15;15.23;;;;;;;;;;4987676;28;20405;-77
2022/11/28 09:18:20;;;;;;;31.98;14.45;;;;;;;;;;4974273;28;20027;-76
2022/11/28 09:20:46;;;;;;;33.25;15.30;;;;;;;;;;4974206;28;20031;-76
2022/11/28 09:23:12;;;;;;;32.40;16.00;;;;;;;;;;4973970;28;20027;-76
2022/11/28 09:25:38;;;;;;;35.10;16.05;;;;;;;;;;4974060;28;20027;-77
2022/11/28 09:28:05;;;;;;;33.38;14.25;;;;;;;;;;4974310;28;20121;-77
2022/11/28 09:30:31;;;;;;;29.52;14.52;;;;;;;;;;4974258;28;20027;-76
2022/11/28 09:32:57;;;;;;;32.55;14.52;;;;;;;;;;4956898;28;20548;-76
2022/11/28 09:35:23;;;;;;;32.47;14.65;;;;;;;;;;4974223;28;20027;-77
2022/11/28 09:37:49;;;;;;;28.02;13.85;;;;;;;;;;4974136;28;20035;-77
2022/11/28 09:40:17;;;;;;;32.58;14.20;;;;;;;;;;4973315;28;20042;-77
2022/11/28 09:42:43;;;;;;;27.00;13.90;;;;;;;;;;4973337;28;20035;-77
2022/11/28 09:45:17;;;;;;;28.48;13.40;;;;;;;;;;4973949;28;20058;-77
2022/11/28 09:47:45;;;;;;;26.27;12.98;;;;;;;;;;4973723;28;20110;-77
2022/11/28 09:50:20;;;;;;;25.42;13.80;;;;;;;;;;4986112;28;20129;-77
2022/11/28 09:52:59;;;;;;;25.80;13.20;;;;;;;;;;4993330;28;20058;-77
2022/11/28 09:55:47;;;;;;;22.27;12.80;;;;;;;;;;4993665;28;20030;-77
2022/11/28 09:58:32;;;;;;;27.05;12.70;;;;;;;;;;4993172;28;20034;-77
2022/11/28 10:01:09;;;;;;;23.13;12.65;;;;;;;;;;4992565;28;20026;-77
2022/11/28 10:03:41;;;;;;;24.58;12.73;;;;;;;;;;4992409;28;20642;-77
2022/11/28 10:06:11;;;;;;;23.13;11.57;;;;;;;;;;4992275;28;20022;-77
2022/11/28 10:08:46;;;;;;;23.27;11.98;;;;;;;;;;4992445;28;20109;-77
2022/11/28 10:11:32;;;;;;;25.02;13.00;;;;;;;;;;4992053;28;20030;-77
2022/11/28 10:14:09;;;;;;;27.25;13.05;;;;;;;;;;4992186;28;20105;-77
2022/11/28 10:16:35;;;;;;;27.95;13.50;;;;;;;;;;4992805;28;20022;-77
2022/11/28 10:19:05;;;;;;;28.15;13.43;;;;;;;;;;4992874;28;20109;-77
2022/11/28 10:21:52;;;;;;;26.35;13.68;;;;;;;;;;4992991;28;20057;-77
2022/11/28 10:24:21;;;;;;;26.17;12.18;;;;;;;;;;4992937;28;20030;-77
2022/11/28 10:26:48;;;;;;;25.98;12.23;;;;;;;;;;4992917;28;20556;-77
2022/11/28 10:29:17;;;;;;;26.63;12.45;;;;;;;;;;4992885;28;20050;-77
2022/11/28 10:31:44;;;;;;;30.63;14.48;;;;;;;;;;4992753;28;20065;-77
2022/11/28 10:34:13;;;;;;;29.42;14.45;;;;;;;;;;4992809;28;20109;-77
2022/11/28 10:36:56;;;;;;;31.60;14.20;;;;;;;;;;4992701;28;20030;-77
2022/11/28 10:39:24;;;;;;;28.77;13.35;;;;;;;;;;4992653;28;20702;-77
2022/11/28 10:42:20;;;;;;;32.80;14.00;;;;;;;;;;4992678;28;20038;-77
2022/11/28 10:44:58;;;;;;;32.10;13.27;;;;;;;;;;4968548;28;20035;-77
2022/11/28 10:47:24;;;;;;;33.83;14.30;;;;;;;;;;4973099;28;20023;-77
2022/11/28 10:49:57;;;;;;;33.83;14.55;;;;;;;;;;4973019;28;20618;-77
2022/11/28 10:52:23;;;;;;;33.28;13.85;;;;;;;;;;4973331;28;20478;-77
2022/11/28 10:55:00;;;;;;;31.20;14.38;;;;;;;;;;4973160;28;20038;-77
2022/11/28 10:57:26;;;;;;;30.52;13.70;;;;;;;;;;4973126;28;20034;-77
2022/11/28 10:59:52;;;;;;;30.20;13.10;;;;;;;;;;4973085;28;20097;-77
2022/11/28 11:02:29;;;;;;;33.25;14.38;;;;;;;;;;4975836;28;20033;-77
2022/11/28 11:04:55;;;;;;;35.17;14.10;;;;;;;;;;4987824;28;20113;-77
2022/11/28 11:07:28;;;;;;;32.45;14.75;;;;;;;;;;4992025;28;20501;-77
2022/11/28 11:09:56;;;;;;;47.03;15.18;;;;;;;;;;4991628;28;20105;-76
2022/11/28 11:12:30;;;;;;;31.92;14.50;;;;;;;;;;4974209;28;20054;-77
2022/11/28 11:14:56;;;;;;;29.20;14.45;;;;;;;;;;4992403;28;20023;-77
2022/11/28 11:17:25;;;;;;;41.08;14.50;;;;;;;;;;4992001;28;20473;-77
2022/11/28 11:19:51;;;;;;;34.42;15.05;;;;;;;;;;4991987;28;20045;-77
2022/11/28 11:22:19;;;;;;;34.70;14.93;;;;;;;;;;4987300;28;20018;-77
2022/11/28 11:25:05;;;;;;;33.40;14.90;;;;;;;;;;4991842;28;20651;-77
2022/11/28 11:27:31;;;;;;;31.08;13.77;;;;;;;;;;4991814;28;20462;-77
2022/11/28 11:29:58;;;;;;;35.40;14.95;;;;;;;;;;4992097;28;20073;-77
2022/11/28 11:32:25;;;;;;;31.83;14.60;;;;;;;;;;4993314;28;20376;-77
2022/11/28 11:34:52;;;;;;;38.00;14.93;;;;;;;;;;4995604;28;20105;-77
2022/11/28 11:37:31;;;;;;;38.33;15.70;;;;;;;;;;4996145;28;20026;-77
2022/11/28 11:39:58;;;;;;;34.97;14.80;;;;;;;;;;4995590;28;20050;-77
2022/11/28 11:42:31;;;;;;;36.08;14.05;;;;;;;;;;4995549;28;20536;-77
2022/11/28 11:45:17;;;;;;;35.33;13.90;;;;;;;;;;4995973;28;20065;-77
2022/11/28 11:47:43;;;;;;;45.67;15.38;;;;;;;;;;4995540;28;20113;-77
2022/11/28 11:50:16;;;;;;;39.03;14.55;;;;;;;;;;4995310;28;20097;-77
2022/11/28 11:52:42;;;;;;;47.28;14.50;;;;;;;;;;4995578;28;20046;-77
2022/11/28 11:55:13;;;;;;;44.58;14.82;;;;;;;;;;4995403;28;20062;-77
2022/11/28 11:57:43;;;;;;;38.00;13.90;;;;;;;;;;4995982;28;20029;-77
2022/11/28 12:00:09;;;;;;;41.80;15.48;;;;;;;;;;4977792;28;20034;-77
2022/11/28 12:02:45;;;;;;;40.55;14.45;;;;;;;;;;4995337;28;20065;-77
2022/11/28 12:05:11;;;;;;;40.65;14.88;;;;;;;;;;4986474;28;20428;-76
2022/11/28 12:07:37;;;;;;;44.55;14.60;;;;;;;;;;4975668;28;20023;-76
2022/11/28 12:10:05;;;;;;;38.47;15.52;;;;;;;;;;4975587;28;20106;-76
2022/11/28 12:12:34;;;;;;;37.28;14.18;;;;;;;;;;4975612;28;20030;-77
2022/11/28 12:15:00;;;;;;;40.70;15.25;;;;;;;;;;4975746;28;20067;-76
2022/11/28 12:17:45;;;;;;;54.55;14.73;;;;;;;;;;4975622;28;20470;-77
2022/11/28 12:20:23;;;;;;;44.20;15.52;;;;;;;;;;4975625;28;20117;-77
2022/11/28 12:22:55;;;;;;;40.85;14.95;;;;;;;;;;4975640;28;20023;-76
2022/11/28 12:25:24;;;;;;;38.75;13.32;;;;;;;;;;4977063;28;20031;-76
2022/11/28 12:28:09;;;;;;;40.45;15.65;;;;;;;;;;4975425;28;20037;-76
2022/11/28 12:30:53;;;;;;;40.63;15.35;;;;;;;;;;4975434;28;20023;-77
2022/11/28 12:33:25;;;;;;;37.45;15.38;;;;;;;;;;4975567;28;20031;-76
2022/11/28 12:36:11;;;;;;;34.65;15.13;;;;;;;;;;4975182;28;20031;-77
2022/11/28 12:38:40;;;;;;;38.85;15.20;;;;;;;;;;4957998;28;20038;-77
2022/11/28 12:41:13;;;;;;;39.20;14.23;;;;;;;;;;4977301;28;20541;-78
2022/11/28 12:43:52;;;;;;;39.20;15.05;;;;;;;;;;4994577;28;20034;-77
2022/11/28 12:46:27;;;;;;;37.22;14.23;;;;;;;;;;4994451;28;20030;-76
2022/11/28 12:48:57;;;;;;;36.17;14.20;;;;;;;;;;4994439;28;20050;-77
2022/11/28 12:51:23;;;;;;;44.10;15.77;;;;;;;;;;4994243;28;20448;-76
2022/11/28 12:53:58;;;;;;;45.05;15.38;;;;;;;;;;4994175;28;20036;-77
2022/11/28 12:56:28;;;;;;;39.72;15.65;;;;;;;;;;4994318;28;20077;-77
2022/11/28 12:59:13;;;;;;;43.17;14.07;;;;;;;;;;4994191;28;20044;-77
2022/11/28 13:01:47;;;;;;;44.00;15.85;;;;;;;;;;4993993;28;20485;-77
2022/11/28 13:04:19;;;;;;;44.70;15.35;;;;;;;;;;4994376;28;20034;-77
2022/11/28 13:06:45;;;;;;;46.03;15.23;;;;;;;;;;4994054;28;20397;-77
2022/11/28 13:09:27;;;;;;;45.95;16.73;;;;;;;;;;4994150;28;20461;-77
2022/11/28 13:12:11;;;;;;;44.38;15.48;;;;;;;;;;4994377;28;20114;-77
2022/11/28 13:14:44;;;;;;;42.03;15.52;;;;;;;;;;4994162;28;20085;-77
2022/11/28 13:17:18;;;;;;;39.88;15.73;;;;;;;;;;4993850;28;20037;-77
2022/11/28 13:19:53;;;;;;;45.88;15.88;;;;;;;;;;4993955;28;20111;-77
2022/11/28 13:22:22;;;;;;;39.83;15.55;;;;;;;;;;4994169;28;20026;-77
2022/11/28 13:25:12;;;;;;;45.50;16.90;;;;;;;;;;4994322;28;20026;-77
2022/11/28 13:27:38;;;;;;;;;;;;;;;;;;4994453;28;20033;-77
2022/11/28 13:30:21;;;;;;;40.08;15.80;;;;;;;;;;4994215;28;19906;-77
2022/11/28 13:32:51;;;;;;;43.97;15.23;;;;;;;;;;4994165;28;20033;-77
2022/11/28 13:35:18;;;;;;;43.05;15.68;;;;;;;;;;4993929;28;20034;-77
2022/11/28 13:37:47;;;;;;;39.67;15.02;;;;;;;;;;4993635;28;20552;-77
2022/11/28 13:40:19;;;;;;;39.75;15.48;;;;;;;;;;4993651;28;20030;-77
2022/11/28 13:42:53;;;;;;;47.20;14.95;;;;;;;;;;4993502;28;20030;-77
2022/11/28 13:45:30;;;;;;;46.05;15.63;;;;;;;;;;4993855;28;20077;-77
2022/11/28 13:47:56;;;;;;;60.13;16.30;;;;;;;;;;4993559;28;20034;-77
2022/11/28 13:50:22;;;;;;;46.40;16.50;;;;;;;;;;4993319;28;20577;-77
2022/11/28 13:53:00;;;;;;;42.70;16.23;;;;;;;;;;4993426;28;20586;-77
2022/11/28 13:55:36;;;;;;;38.95;15.88;;;;;;;;;;4992866;28;20109;-77
2022/11/28 13:58:20;;;;;;;38.63;14.80;;;;;;;;;;4981681;28;20516;-77
2022/11/28 14:01:01;;;;;;;38.17;14.93;;;;;;;;;;4973895;28;20038;-77
2022/11/28 14:03:30;;;;;;;44.88;14.88;;;;;;;;;;4973720;28;20377;-78
2022/11/28 14:05:57;;;;;;;47.03;15.95;;;;;;;;;;4973953;28;20780;-77